createdAt,value
2018-06-13T00:02:19.316Z,100223.68
2018-06-13T00:04:47.398Z,100223.05
2018-06-13T00:07:15.467Z,100227.68
2018-06-13T00:09:43.584Z,100229.20
2018-06-13T00:12:11.687Z,100225.34
2018-06-13T00:14:39.805Z,100227.16
2018-06-13T00:17:07.896Z,100221.70
2018-06-13T00:19:35.990Z,100221.89
2018-06-13T00:22:04.071Z,100229.78
2018-06-13T00:24:32.161Z,100229.59
2018-06-13T00:27:00.284Z,100233.26
2018-06-13T00:29:28.366Z,100231.33
2018-06-13T00:31:56.443Z,100230.77
2018-06-13T00:34:24.546Z,100233.47
2018-06-13T00:36:52.697Z,100229.39
2018-06-13T00:39:20.779Z,100233.58
2018-06-13T00:41:48.875Z,100242.59
2018-06-13T00:44:16.959Z,100248.65
2018-06-13T00:46:45.037Z,100245.35
2018-06-13T00:49:13.125Z,100248.69
2018-06-13T00:51:41.221Z,100246.18
2018-06-13T00:54:15.972Z,100241.63
2018-06-13T00:56:44.064Z,100241.70
2018-06-13T00:59:12.164Z,100235.05
2018-06-13T01:01:40.265Z,100233.27
2018-06-13T01:04:08.347Z,100237.96
2018-06-13T01:06:36.422Z,100241.04
2018-06-13T01:09:07.055Z,100247.02
2018-06-13T01:11:35.163Z,100242.91
2018-06-13T01:14:03.370Z,100244.97
2018-06-13T01:16:31.446Z,100242.24
2018-06-13T01:18:59.533Z,100240.52
2018-06-13T01:21:27.623Z,100237.11
2018-06-13T01:23:55.709Z,100234.14
2018-06-13T01:26:23.770Z,100225.19
2018-06-13T01:28:51.847Z,100225.34
2018-06-13T01:31:19.954Z,100226.35
2018-06-13T01:33:48.071Z,100231.31
2018-06-13T01:36:16.152Z,100226.75
2018-06-13T01:38:44.271Z,100231.05
2018-06-13T01:41:12.382Z,100231.17
2018-06-13T01:43:40.480Z,100238.74
2018-06-13T01:46:08.572Z,100236.56
2018-06-13T01:48:36.679Z,100239.84
2018-06-13T01:51:04.802Z,100245.50
2018-06-13T01:53:32.890Z,100244.82
2018-06-13T01:56:00.963Z,100240.09
2018-06-13T01:58:29.072Z,100242.89
2018-06-13T02:00:57.166Z,100239.80
2018-06-13T02:03:25.261Z,100230.98
2018-06-13T02:05:53.368Z,100234.33
2018-06-13T02:08:21.487Z,100236.27
2018-06-13T02:10:49.563Z,100235.00
2018-06-13T02:13:17.634Z,100237.98
2018-06-13T02:15:45.743Z,100239.33
2018-06-13T02:18:13.848Z,100233.87
2018-06-13T02:20:41.936Z,100239.64
2018-06-13T02:23:10.002Z,100238.56
2018-06-13T02:25:44.893Z,100240.68
2018-06-13T02:28:13.142Z,100246.50
2018-06-13T02:30:41.245Z,100249.14
2018-06-13T02:33:09.319Z,100244.63
2018-06-13T02:35:37.391Z,100239.11
2018-06-13T02:38:05.456Z,100243.22
2018-06-13T02:40:33.550Z,100246.57
2018-06-13T02:43:01.642Z,100251.59
2018-06-13T02:45:29.727Z,100251.16
2018-06-13T02:47:57.827Z,100252.33
2018-06-13T02:50:25.908Z,100248.49
2018-06-13T02:52:54.432Z,100240.64
2018-06-13T02:55:22.536Z,100247.70
2018-06-13T02:57:50.623Z,100249.23
2018-06-13T03:00:18.695Z,100239.63
2018-06-13T03:02:46.780Z,100240.45
2018-06-13T03:05:14.881Z,100238.36
2018-06-13T03:07:42.977Z,100236.77
2018-06-13T03:10:11.085Z,100242.23
2018-06-13T03:12:39.186Z,100238.03
2018-06-13T03:15:07.263Z,100242.17
2018-06-13T03:17:35.406Z,100242.75
2018-06-13T03:20:03.517Z,100243.91
2018-06-13T03:22:31.609Z,100241.06
2018-06-13T03:24:59.705Z,100245.02
2018-06-13T03:27:27.804Z,100236.16
2018-06-13T03:29:55.902Z,100239.03
2018-06-13T03:32:23.999Z,100244.02
2018-06-13T03:34:52.125Z,100246.02
2018-06-13T03:37:20.244Z,100248.31
2018-06-13T03:39:48.343Z,100249.08
2018-06-13T03:42:16.423Z,100249.48
2018-06-13T03:44:44.534Z,100252.25
2018-06-13T03:47:12.640Z,100257.27
2018-06-13T03:49:40.751Z,100257.52
2018-06-13T03:52:08.841Z,100262.33
2018-06-13T03:54:37.392Z,100266.31
2018-06-13T03:57:05.492Z,100264.23
2018-06-13T03:59:33.587Z,100265.17
2018-06-13T04:02:01.679Z,100282.11
2018-06-13T04:04:29.772Z,100277.75
2018-06-13T04:06:57.877Z,100291.47
2018-06-13T04:09:25.971Z,100292.20
2018-06-13T04:11:54.039Z,100292.03
2018-06-13T04:14:22.163Z,100294.33
2018-06-13T04:16:50.256Z,100292.39
2018-06-13T04:19:18.346Z,100298.64
2018-06-13T04:21:46.411Z,100299.55
2018-06-13T04:24:14.513Z,100301.45
2018-06-13T04:26:42.599Z,100299.80
2018-06-13T04:29:10.694Z,100294.57
2018-06-13T04:31:38.791Z,100295.33
2018-06-13T04:34:06.870Z,100295.85
2018-06-13T04:36:34.956Z,100302.05
2018-06-13T04:39:03.071Z,100303.45
2018-06-13T04:41:31.144Z,100301.84
2018-06-13T04:43:59.756Z,100300.11
2018-06-13T04:46:27.859Z,100297.86
2018-06-13T04:48:55.991Z,100295.37
2018-06-13T04:51:24.091Z,100299.80
2018-06-13T04:53:52.164Z,100307.72
2018-06-13T04:56:20.243Z,100299.10
2018-06-13T04:58:48.330Z,100307.22
2018-06-13T05:01:16.481Z,100302.01
2018-06-13T05:03:44.598Z,100306.78
2018-06-13T05:06:12.720Z,100309.30
2018-06-13T05:08:40.811Z,100303.24
2018-06-13T05:11:08.904Z,100311.42
2018-06-13T05:13:36.978Z,100317.75
2018-06-13T05:16:05.078Z,100328.61
2018-06-13T05:18:33.170Z,100325.94
2018-06-13T05:21:01.260Z,100323.59
2018-06-13T05:23:29.343Z,100328.61
2018-06-13T05:25:57.441Z,100329.38
2018-06-13T05:28:25.518Z,100327.27
2018-06-13T05:30:53.639Z,100325.39
2018-06-13T05:33:21.728Z,100319.23
2018-06-13T05:35:49.827Z,100319.67
2018-06-13T05:38:17.933Z,100324.08
2018-06-13T05:40:46.047Z,100325.25
2018-06-13T05:43:14.123Z,100337.47
2018-06-13T05:45:42.227Z,100326.84
2018-06-13T05:48:10.343Z,100330.77
2018-06-13T05:50:38.433Z,100335.11
2018-06-13T05:53:06.523Z,100342.55
2018-06-13T05:55:34.647Z,100346.48
2018-06-13T05:58:02.739Z,100340.90
2018-06-13T06:00:30.811Z,100347.62
2018-06-13T06:02:58.911Z,100339.42
2018-06-13T06:05:27.006Z,100349.09
2018-06-13T06:07:55.207Z,100350.23
2018-06-13T06:10:23.377Z,100356.01
2018-06-13T06:12:51.575Z,100351.53
2018-06-13T06:15:19.659Z,100359.02
2018-06-13T06:17:47.819Z,100354.06
2018-06-13T06:20:15.892Z,100358.89
2018-06-13T06:22:44.015Z,100363.56
2018-06-13T06:25:12.157Z,100367.25
2018-06-13T06:27:40.227Z,100374.71
2018-06-13T06:30:08.355Z,100371.39
2018-06-13T06:32:36.452Z,100369.70
2018-06-13T06:35:04.550Z,100372.00
2018-06-13T06:37:32.623Z,100378.05
2018-06-13T06:40:00.707Z,100368.36
2018-06-13T06:42:28.890Z,100376.20
2018-06-13T06:44:57.171Z,100376.70
2018-06-13T06:47:25.284Z,100385.39
2018-06-13T06:49:53.392Z,100384.25
2018-06-13T06:52:21.520Z,100393.31
2018-06-13T06:54:49.626Z,100388.22
2018-06-13T06:57:17.711Z,100389.79
2018-06-13T06:59:46.811Z,100403.43
2018-06-13T07:02:14.876Z,100400.36
2018-06-13T07:04:43.071Z,100402.50
2018-06-13T07:07:11.155Z,100402.75
2018-06-13T07:09:39.235Z,100399.77
2018-06-13T07:12:07.332Z,100393.81
2018-06-13T07:14:35.418Z,100403.34
2018-06-13T07:17:03.504Z,100407.61
2018-06-13T07:19:31.588Z,100408.44
2018-06-13T07:21:59.654Z,100410.91
2018-06-13T07:24:27.751Z,100403.75
2018-06-13T07:26:55.880Z,100410.89
2018-06-13T07:29:23.944Z,100405.15
2018-06-13T07:31:52.059Z,100419.25
2018-06-13T07:34:20.126Z,100414.61
2018-06-13T07:36:48.219Z,100424.05
2018-06-13T07:39:16.283Z,100400.98
2018-06-13T07:41:44.374Z,100404.47
2018-06-13T07:44:12.503Z,100407.12
2018-06-13T07:46:40.587Z,100416.57
2018-06-13T07:49:08.659Z,100413.27
2018-06-13T07:51:36.748Z,100423.31
2018-06-13T07:54:04.835Z,100422.05
2018-06-13T07:56:32.944Z,100422.20
2018-06-13T07:59:01.051Z,100424.75
2018-06-13T08:01:29.162Z,100433.81
2018-06-13T08:03:57.374Z,100426.53
2018-06-13T08:06:25.465Z,100431.17
2018-06-13T08:08:53.531Z,100437.41
2018-06-13T08:11:21.637Z,100429.39
2018-06-13T08:13:49.747Z,100434.21
2018-06-13T08:16:17.912Z,100427.76
2018-06-13T08:18:46.007Z,100437.09
2018-06-13T08:21:14.113Z,100440.45
2018-06-13T08:23:42.276Z,100434.23
2018-06-13T08:26:10.386Z,100442.33
2018-06-13T08:28:38.606Z,100443.45
2018-06-13T08:31:07.024Z,100449.58
2018-06-13T08:33:35.202Z,100446.35
2018-06-13T08:36:03.799Z,100443.57
2018-06-13T08:38:31.956Z,100441.58
2018-06-13T08:41:00.207Z,100445.75
2018-06-13T08:43:28.339Z,100441.27
2018-06-13T08:45:56.446Z,100448.03
2018-06-13T08:48:24.572Z,100443.27
2018-06-13T08:50:52.685Z,100448.69
2018-06-13T08:53:20.784Z,100447.39
2018-06-13T08:55:49.027Z,100461.19
2018-06-13T08:58:17.104Z,100455.55
2018-06-13T09:00:45.210Z,100457.86
2018-06-13T09:03:13.318Z,100460.91
2018-06-13T09:05:41.391Z,100454.13
2018-06-13T09:08:09.496Z,100466.48
2018-06-13T09:10:37.580Z,100469.36
2018-06-13T09:13:05.706Z,100466.55
2018-06-13T09:15:33.797Z,100462.02
2018-06-13T09:18:01.872Z,100470.20
2018-06-13T09:20:29.948Z,100464.02
2018-06-13T09:22:58.119Z,100472.44
2018-06-13T09:25:26.186Z,100466.50
2018-06-13T09:27:54.331Z,100470.72
2018-06-13T09:30:22.404Z,100470.18
2018-06-13T09:32:50.490Z,100470.38
2018-06-13T09:35:18.555Z,100466.32
2018-06-13T09:37:46.637Z,100470.52
2018-06-13T09:40:14.790Z,100472.52
2018-06-13T09:42:43.806Z,100469.09
2018-06-13T09:45:11.869Z,100476.29
2018-06-13T09:47:39.942Z,100477.92
2018-06-13T09:50:08.071Z,100472.52
2018-06-13T09:52:36.099Z,100475.80
2018-06-13T09:55:04.166Z,100477.46
2018-06-13T09:57:32.263Z,100482.05
2018-06-13T10:00:05.668Z,100479.53
2018-06-13T10:02:37.361Z,100479.97
2018-06-13T10:05:06.305Z,100482.95
2018-06-13T10:07:34.405Z,100488.29
2018-06-13T10:10:02.479Z,100484.83
2018-06-13T10:12:30.577Z,100484.15
2018-06-13T10:14:58.683Z,100492.08
2018-06-13T10:17:26.759Z,100500.19
2018-06-13T10:19:54.807Z,100500.93
2018-06-13T10:22:22.900Z,100508.95
2018-06-13T10:24:50.964Z,100509.72
2018-06-13T10:27:24.339Z,100497.55
2018-06-13T10:29:52.412Z,100500.23
2018-06-13T10:32:23.348Z,100497.48
2018-06-13T10:34:51.420Z,100494.59
2018-06-13T10:37:19.504Z,100490.33
2018-06-13T10:39:47.577Z,100492.81
2018-06-13T10:42:15.699Z,100493.84
2018-06-13T10:44:43.788Z,100485.58
2018-06-13T10:47:11.912Z,100492.20
2018-06-13T10:49:40.011Z,100486.27
2018-06-13T10:52:08.131Z,100484.75
2018-06-13T10:54:36.244Z,100484.28
2018-06-13T10:57:04.348Z,100485.06
2018-06-13T10:59:32.421Z,100485.47
2018-06-13T11:02:00.515Z,100489.23
2018-06-13T11:04:28.591Z,100491.98
2018-06-13T11:06:56.662Z,100489.25
2018-06-13T11:09:24.750Z,100494.92
2018-06-13T11:11:52.890Z,100493.55
2018-06-13T11:14:20.970Z,100489.64
2018-06-13T11:16:49.055Z,100495.36
2018-06-13T11:19:17.140Z,100493.70
2018-06-13T11:21:45.198Z,100490.88
2018-06-13T11:24:13.283Z,100495.27
2018-06-13T11:26:41.515Z,100496.21
2018-06-13T11:29:09.636Z,100503.87
2018-06-13T11:31:37.827Z,100502.16
2018-06-13T11:34:05.904Z,100497.32
2018-06-13T11:36:33.989Z,100507.73
2018-06-13T11:39:02.110Z,100501.83
2018-06-13T11:41:30.218Z,100502.69
2018-06-13T11:43:58.314Z,100501.58
2018-06-13T11:46:26.399Z,100504.25
2018-06-13T11:48:54.730Z,100502.59
2018-06-13T11:51:22.846Z,100503.29
2018-06-13T11:53:50.967Z,100507.87
2018-06-13T11:56:20.695Z,100505.91
2018-06-13T11:58:48.779Z,100507.95
2018-06-13T12:01:16.868Z,100512.52
2018-06-13T12:03:44.948Z,100510.54
2018-06-13T12:06:13.046Z,100511.02
2018-06-13T12:08:41.114Z,100508.27
2018-06-13T12:11:09.179Z,100508.09
2018-06-13T12:13:37.275Z,100504.86
2018-06-13T12:16:05.404Z,100502.97
2018-06-13T12:18:33.487Z,100506.23
2018-06-13T12:21:01.564Z,100509.77
2018-06-13T12:23:29.722Z,100509.88
2018-06-13T12:25:57.816Z,100510.56
2018-06-13T12:28:25.943Z,100509.88
2018-06-13T12:30:54.051Z,100509.86
2018-06-13T12:33:22.151Z,100516.75
2018-06-13T12:35:50.236Z,100516.70
2018-06-13T12:38:18.470Z,100517.88
2018-06-13T12:40:46.550Z,100515.84
2018-06-13T12:43:14.705Z,100520.27
2018-06-13T12:45:45.895Z,100522.17
2018-06-13T12:48:14.091Z,100518.22
2018-06-13T12:50:42.274Z,100519.08
2018-06-13T12:53:10.380Z,100525.71
2018-06-13T12:55:38.494Z,100521.60
2018-06-13T12:58:06.585Z,100522.43
2018-06-13T13:00:34.734Z,100519.00
2018-06-13T13:03:02.808Z,100518.73
2018-06-13T13:05:30.895Z,100523.32
2018-06-13T13:07:58.985Z,100513.83
2018-06-13T13:10:27.059Z,100510.69
2018-06-13T13:12:55.140Z,100506.81
2018-06-13T13:15:23.263Z,100508.02
2018-06-13T13:17:51.361Z,100509.75
2018-06-13T13:20:19.510Z,100514.05
2018-06-13T13:22:47.538Z,100515.16
2018-06-13T13:25:15.653Z,100515.33
2018-06-13T13:27:43.733Z,100514.06
2018-06-13T13:30:11.858Z,100513.09
2018-06-13T13:32:40.818Z,100520.33
2018-06-13T13:35:08.931Z,100529.41
2018-06-13T13:37:37.018Z,100519.72
2018-06-13T13:40:05.095Z,100522.95
2018-06-13T13:42:33.206Z,100521.44
2018-06-13T13:45:01.316Z,100526.19
2018-06-13T13:47:30.004Z,100525.14
2018-06-13T13:49:58.067Z,100534.16
2018-06-13T13:52:26.155Z,100533.05
2018-06-13T13:54:54.272Z,100541.20
2018-06-13T13:57:22.387Z,100526.14
2018-06-13T13:59:50.465Z,100526.47
2018-06-13T14:02:18.550Z,100519.65
2018-06-13T14:04:46.696Z,100524.92
2018-06-13T14:07:14.836Z,100524.92
2018-06-13T14:09:42.942Z,100522.85
2018-06-13T14:12:11.110Z,100531.23
2018-06-13T14:14:39.191Z,100527.50
2018-06-13T14:17:07.263Z,100537.84
2018-06-13T14:19:35.363Z,100532.27
2018-06-13T14:22:03.501Z,100533.66
2018-06-13T14:24:31.564Z,100528.26
2018-06-13T14:26:59.664Z,100540.35
2018-06-13T14:29:27.774Z,100534.80
2018-06-13T14:31:55.847Z,100539.22
2018-06-13T14:34:23.945Z,100545.36
2018-06-13T14:36:52.060Z,100541.77
2018-06-13T14:39:20.133Z,100543.40
2018-06-13T14:41:48.235Z,100542.72
2018-06-13T14:44:16.335Z,100553.82
2018-06-13T14:46:44.444Z,100553.58
2018-06-13T14:49:12.544Z,100552.02
2018-06-13T14:51:40.632Z,100550.46
2018-06-13T14:54:08.796Z,100556.53
2018-06-13T14:56:36.918Z,100553.23
2018-06-13T14:59:05.006Z,100553.80
2018-06-13T15:01:33.093Z,100553.19
2018-06-13T15:04:01.175Z,100552.89
2018-06-13T15:06:29.434Z,100545.54
2018-06-13T15:08:57.540Z,100552.74
2018-06-13T15:11:25.641Z,100554.34
2018-06-13T15:13:53.711Z,100551.55
2018-06-13T15:16:21.943Z,100554.33
2018-06-13T15:18:50.055Z,100550.95
2018-06-13T15:21:18.155Z,100546.42
2018-06-13T15:23:46.244Z,100554.97
2018-06-13T15:26:14.361Z,100549.11
2018-06-13T15:28:42.418Z,100554.45
2018-06-13T15:31:10.519Z,100557.41
2018-06-13T15:33:38.675Z,100557.53
2018-06-13T15:36:06.834Z,100559.61
2018-06-13T15:38:34.932Z,100552.98
2018-06-13T15:41:03.006Z,100555.95
2018-06-13T15:43:31.086Z,100558.84
2018-06-13T15:45:59.203Z,100547.19
2018-06-13T15:48:27.310Z,100560.27
2018-06-13T15:50:55.419Z,100556.18
2018-06-13T15:53:23.494Z,100549.86
2018-06-13T15:55:51.688Z,100548.30
2018-06-13T15:58:19.784Z,100554.83
2018-06-13T16:00:47.936Z,100552.11
2018-06-13T16:03:16.027Z,100553.40
2018-06-13T16:05:44.106Z,100549.55
2018-06-13T16:09:25.617Z,100550.33
2018-06-13T16:11:53.744Z,100551.64
2018-06-13T16:14:21.853Z,100553.22
2018-06-13T16:16:49.996Z,100555.29
2018-06-13T16:19:18.084Z,100551.65
2018-06-13T16:21:46.193Z,100558.23
2018-06-13T16:24:14.250Z,100557.31
2018-06-13T16:26:42.381Z,100559.03
2018-06-13T16:29:10.498Z,100552.62
2018-06-13T16:31:38.665Z,100561.72
2018-06-13T16:34:06.794Z,100558.63
2018-06-13T16:36:34.891Z,100562.69
2018-06-13T16:39:02.993Z,100558.42
2018-06-13T16:41:31.070Z,100556.33
2018-06-13T16:43:59.156Z,100559.02
2018-06-13T16:46:27.244Z,100556.72
2018-06-13T16:48:55.350Z,100563.39
2018-06-13T16:51:34.681Z,100568.75
2018-06-13T16:54:11.200Z,100561.50
2018-06-13T16:56:39.794Z,100563.13
2018-06-13T16:59:08.144Z,100566.02
2018-06-13T17:01:38.174Z,100571.54
2018-06-13T17:04:07.913Z,100563.41
2018-06-13T17:06:38.731Z,100566.13
2018-06-13T17:09:09.992Z,100569.73
2018-06-13T17:11:45.054Z,100564.41
2018-06-13T17:14:15.772Z,100565.09
2018-06-13T17:16:49.548Z,100568.95
2018-06-13T17:19:26.844Z,100574.17
2018-06-13T17:21:55.145Z,100573.53
2018-06-13T17:24:25.093Z,100578.32
2018-06-13T17:26:53.485Z,100582.31
2018-06-13T17:29:24.747Z,100580.49
2018-06-13T17:31:54.262Z,100591.47
2018-06-13T17:34:23.609Z,100600.92
2018-06-13T17:36:54.029Z,100598.25
2018-06-13T17:39:24.481Z,100602.16
2018-06-13T17:41:53.594Z,100612.17
2018-06-13T17:44:22.231Z,100603.53
2018-06-13T17:46:51.139Z,100606.30
2018-06-13T17:49:20.252Z,100599.72
2018-06-13T17:51:49.891Z,100607.75
2018-06-13T17:54:18.331Z,100610.39
2018-06-13T17:56:46.551Z,100613.16
2018-06-13T17:59:15.517Z,100617.81
2018-06-13T18:01:45.286Z,100620.70
2018-06-13T18:04:16.415Z,100621.13
2018-06-13T18:06:47.297Z,100620.83
2018-06-13T18:09:15.716Z,100621.41
2018-06-13T18:11:44.019Z,100620.23
2018-06-13T18:14:12.373Z,100622.11
2018-06-13T18:16:41.469Z,100616.56
2018-06-13T18:19:11.741Z,100626.46
2018-06-13T18:21:39.979Z,100634.80
2018-06-13T18:24:08.278Z,100644.71
2018-06-13T18:26:36.802Z,100649.50
2018-06-13T18:29:05.232Z,100644.72
2018-06-13T18:31:33.554Z,100648.48
2018-06-13T18:34:03.408Z,100647.56
2018-06-13T18:36:32.249Z,100647.19
2018-06-13T18:39:00.515Z,100653.87
2018-06-13T18:41:29.971Z,100644.57
2018-06-13T18:43:59.526Z,100653.45
2018-06-13T18:46:28.080Z,100660.47
2018-06-13T18:48:58.359Z,100650.24
2018-06-13T18:51:26.620Z,100648.97
2018-06-13T18:53:55.899Z,100646.36
2018-06-13T18:56:25.128Z,100651.40
2018-06-13T18:58:55.983Z,100647.80
2018-06-13T19:01:24.976Z,100654.48
2018-06-13T19:03:53.493Z,100658.85
2018-06-13T19:06:21.719Z,100657.67
2018-06-13T19:08:49.938Z,100662.42
2018-06-13T19:11:18.543Z,100656.33
2018-06-13T19:13:46.849Z,100664.71
2018-06-13T19:16:17.295Z,100660.90
2018-06-13T19:18:47.014Z,100661.03
2018-06-13T19:21:15.266Z,100661.81
2018-06-13T19:23:45.821Z,100665.46
2018-06-13T19:26:14.066Z,100661.36
2018-06-13T19:28:42.978Z,100673.15
2018-06-13T19:31:12.660Z,100678.03
2018-06-13T19:33:42.021Z,100677.52
2018-06-13T19:36:12.619Z,100676.84
2018-06-13T19:38:42.509Z,100669.28
2018-06-13T19:41:12.372Z,100678.14
2018-06-13T19:43:42.591Z,100686.45
2018-06-13T19:46:10.988Z,100684.30
2018-06-13T19:48:44.445Z,100690.54
2018-06-13T19:51:12.819Z,100690.25
2018-06-13T19:53:46.448Z,100690.34
2018-06-13T19:56:18.426Z,100689.86
2018-06-13T19:58:46.780Z,100686.65
2018-06-13T20:01:19.555Z,100689.19
2018-06-13T20:03:53.369Z,100693.55
2018-06-13T20:06:22.133Z,100695.73
2018-06-13T20:08:50.398Z,100695.44
2018-06-13T20:11:18.696Z,100697.59
2018-06-13T20:13:52.391Z,100704.81
2018-06-13T20:17:40.616Z,100705.72
2018-06-13T20:20:09.504Z,100702.53
2018-06-13T20:22:40.152Z,100708.09
2018-06-13T20:25:13.680Z,100706.61
2018-06-13T20:27:50.067Z,100704.80
2018-06-13T20:30:27.828Z,100708.64
2018-06-13T20:32:56.035Z,100705.46
2018-06-13T20:35:24.340Z,100702.94
2018-06-13T20:37:52.536Z,100704.13
2018-06-13T20:40:21.129Z,100707.44
2018-06-13T20:42:49.356Z,100710.80
2018-06-13T20:45:17.603Z,100711.42
2018-06-13T20:47:52.181Z,100707.03
2018-06-13T20:50:22.287Z,100713.30
2018-06-13T20:52:54.980Z,100706.92
2018-06-13T20:55:23.880Z,100700.39
2018-06-13T20:57:52.511Z,100702.42
2018-06-13T21:00:20.818Z,100701.73
2018-06-13T21:02:49.472Z,100702.05
2018-06-13T21:05:17.707Z,100700.08
2018-06-13T21:07:46.536Z,100706.81
2018-06-13T21:10:15.498Z,100711.15
2018-06-13T21:12:47.891Z,100722.59
2018-06-13T21:15:16.851Z,100721.61
2018-06-13T21:17:46.361Z,100717.47
2018-06-13T21:20:14.764Z,100713.66
2018-06-13T21:22:42.940Z,100717.14
2018-06-13T21:25:11.431Z,100720.12
2018-06-13T21:27:39.715Z,100732.30
2018-06-13T21:30:08.019Z,100731.93
2018-06-13T21:32:36.640Z,100734.25
2018-06-13T21:35:08.565Z,100728.20
2018-06-13T21:37:37.157Z,100723.47
2018-06-13T21:40:05.471Z,100722.58
2018-06-13T21:42:33.779Z,100723.18
2018-06-13T21:45:03.023Z,100724.58
2018-06-13T21:47:35.674Z,100724.76
2018-06-13T21:50:03.941Z,100726.66
2018-06-13T21:52:32.647Z,100728.52
2018-06-13T21:55:01.038Z,100725.97
2018-06-13T21:57:29.626Z,100730.30
2018-06-13T21:59:57.953Z,100732.77
2018-06-13T22:02:27.205Z,100733.83
2018-06-13T22:04:55.520Z,100740.54
2018-06-13T22:07:23.741Z,100738.85
2018-06-13T22:09:51.983Z,100736.35
2018-06-13T22:12:20.153Z,100735.66
2018-06-13T22:14:48.427Z,100743.09
2018-06-13T22:17:17.248Z,100737.94
2018-06-13T22:19:47.119Z,100727.80
2018-06-13T22:22:17.563Z,100725.10
2018-06-13T22:24:47.005Z,100721.60
2018-06-13T22:27:15.850Z,100715.89
2018-06-13T22:29:44.670Z,100716.39
2018-06-13T22:32:14.228Z,100714.25
2018-06-13T22:34:42.495Z,100716.25
2018-06-13T22:37:11.662Z,100710.80
2018-06-13T22:39:40.932Z,100721.84
2018-06-13T22:42:10.618Z,100716.88
2018-06-13T22:46:20.603Z,100721.43
2018-06-13T22:48:49.776Z,100723.09
2018-06-13T22:51:18.169Z,100718.95
2018-06-13T22:53:47.183Z,100720.42
2018-06-13T22:56:18.092Z,100717.09
2018-06-13T22:58:46.594Z,100715.24
2018-06-13T23:01:14.872Z,100710.91
2018-06-13T23:03:44.507Z,100714.77
2018-06-13T23:06:13.504Z,100719.96
2018-06-13T23:08:45.731Z,100724.03
2018-06-13T23:11:14.689Z,100724.99
2018-06-13T23:13:43.028Z,100719.83
2018-06-13T23:16:12.661Z,100723.64
2018-06-13T23:18:42.730Z,100716.52
2018-06-13T23:21:13.083Z,100712.78
2018-06-13T23:23:42.389Z,100709.08
2018-06-13T23:26:11.957Z,100710.11
2018-06-13T23:28:41.187Z,100708.25
2018-06-13T23:31:11.484Z,100706.48
2018-06-13T23:33:40.008Z,100706.68
2018-06-13T23:36:09.153Z,100705.33
2018-06-13T23:38:39.786Z,100709.72
2018-06-13T23:41:08.374Z,100710.72
2018-06-13T23:43:39.311Z,100708.47
2018-06-13T23:46:07.383Z,100705.91
2018-06-13T23:48:35.476Z,100704.17
2018-06-13T23:51:03.579Z,100709.75
2018-06-13T23:53:31.668Z,100708.50
2018-06-13T23:55:59.828Z,100710.42
2018-06-13T23:58:27.923Z,100704.55
